createdAt,value
2024-04-17T00:00:53.054Z,3.70
2024-04-17T00:03:20.845Z,3.70
2024-04-17T00:05:47.707Z,3.70
2024-04-17T00:08:14.608Z,3.60
2024-04-17T00:10:42.274Z,3.70
2024-04-17T00:13:09.320Z,3.70
2024-04-17T00:15:36.135Z,3.70
2024-04-17T00:18:03.063Z,3.60
2024-04-17T00:20:29.943Z,3.60
2024-04-17T00:22:56.783Z,3.60
2024-04-17T00:25:23.671Z,3.50
2024-04-17T00:27:50.452Z,3.40
2024-04-17T00:30:17.340Z,3.50
2024-04-17T00:32:44.248Z,3.50
2024-04-17T00:35:11.101Z,3.60
2024-04-17T00:37:37.950Z,3.60
2024-04-17T00:40:05.184Z,3.70
2024-04-17T00:42:31.957Z,3.70
2024-04-17T00:44:58.750Z,3.70
2024-04-17T00:47:25.742Z,3.70
2024-04-17T00:49:52.939Z,3.70
2024-04-17T00:52:20.275Z,3.70
2024-04-17T00:54:47.552Z,3.70
2024-04-17T00:57:15.704Z,3.60
2024-04-17T00:59:44.387Z,3.60
2024-04-17T01:02:13.334Z,3.50
2024-04-17T01:04:40.781Z,3.50
2024-04-17T01:07:07.636Z,3.50
2024-04-17T01:09:34.422Z,3.50
2024-04-17T01:12:01.237Z,3.40
2024-04-17T01:14:28.092Z,3.40
2024-04-17T01:16:54.966Z,3.40
2024-04-17T01:19:22.732Z,3.40
2024-04-17T01:21:49.518Z,3.40
2024-04-17T01:24:16.359Z,3.40
2024-04-17T01:26:43.142Z,3.30
2024-04-17T01:29:09.934Z,3.30
2024-04-17T01:31:36.915Z,3.20
2024-04-17T01:34:03.768Z,3.20
2024-04-17T01:36:30.554Z,3.10
2024-04-17T01:38:57.432Z,3.10
2024-04-17T01:41:24.256Z,3.10
2024-04-17T01:43:51.156Z,3.10
2024-04-17T01:46:17.978Z,3.10
2024-04-17T01:48:44.812Z,3.10
2024-04-17T01:51:11.646Z,3.10
2024-04-17T01:53:38.479Z,3.10
2024-04-17T01:56:05.613Z,3.10
2024-04-17T01:58:32.528Z,3.10
2024-04-17T02:01:05.025Z,3.10
2024-04-17T02:03:33.525Z,3.00
2024-04-17T02:06:00.422Z,3.00
2024-04-17T02:08:27.259Z,3.00
2024-04-17T02:10:54.290Z,3.10
2024-04-17T02:13:21.229Z,3.10
2024-04-17T02:15:48.016Z,3.20
2024-04-17T02:18:14.929Z,3.20
2024-04-17T02:20:41.789Z,3.30
2024-04-17T02:23:08.715Z,3.30
2024-04-17T02:25:35.566Z,3.40
2024-04-17T02:28:02.372Z,3.40
2024-04-17T02:30:29.169Z,3.50
2024-04-17T02:32:56.090Z,3.60
2024-04-17T02:35:22.923Z,3.60
2024-04-17T02:37:49.814Z,3.70
2024-04-17T02:40:16.921Z,3.70
2024-04-17T02:42:43.734Z,3.80
2024-04-17T02:45:10.588Z,3.80
2024-04-17T02:47:37.489Z,3.80
2024-04-17T02:50:04.554Z,3.80
2024-04-17T02:52:31.347Z,3.90
2024-04-17T02:54:58.183Z,3.90
2024-04-17T02:57:25.000Z,3.90
2024-04-17T02:59:51.832Z,3.90
2024-04-17T03:02:18.645Z,3.90
2024-04-17T03:04:45.468Z,3.90
2024-04-17T03:07:12.307Z,3.90
2024-04-17T03:09:39.118Z,3.90
2024-04-17T03:12:06.310Z,3.90
2024-04-17T03:14:33.137Z,4.00
2024-04-17T03:17:00.036Z,4.00
2024-04-17T03:19:26.964Z,4.00
2024-04-17T03:21:53.781Z,4.10
2024-04-17T03:24:20.576Z,4.10
2024-04-17T03:26:48.938Z,4.20
2024-04-17T03:29:15.775Z,4.20
2024-04-17T03:31:42.670Z,4.20
2024-04-17T03:34:09.468Z,4.20
2024-04-17T03:36:36.273Z,4.20
2024-04-17T03:39:03.070Z,4.20
2024-04-17T03:41:29.870Z,4.20
2024-04-17T03:43:56.897Z,4.20
2024-04-17T03:46:23.814Z,4.20
2024-04-17T03:48:50.621Z,4.20
2024-04-17T03:51:17.439Z,4.20
2024-04-17T03:53:44.222Z,4.20
2024-04-17T03:56:11.039Z,4.20
2024-04-17T03:58:37.919Z,4.20
2024-04-17T04:01:04.951Z,4.20
2024-04-17T04:03:31.933Z,4.20
2024-04-17T04:05:58.818Z,4.20
2024-04-17T04:08:25.628Z,4.20
2024-04-17T04:10:52.535Z,4.20
2024-04-17T04:13:19.352Z,4.20
2024-04-17T04:15:53.129Z,4.20
2024-04-17T04:18:20.140Z,4.10
2024-04-17T04:20:49.734Z,4.20
2024-04-17T04:23:17.119Z,4.10
2024-04-17T04:25:43.992Z,4.20
2024-04-17T04:28:10.816Z,4.20
2024-04-17T04:30:41.230Z,4.20
2024-04-17T04:33:09.736Z,4.20
2024-04-17T04:35:36.780Z,4.30
2024-04-17T04:38:03.636Z,4.30
2024-04-17T04:40:30.488Z,4.30
2024-04-17T04:42:57.315Z,4.40
2024-04-17T04:45:24.150Z,4.40
2024-04-17T04:47:51.120Z,4.40
2024-04-17T04:50:17.967Z,4.40
2024-04-17T04:52:44.838Z,4.40
2024-04-17T04:55:11.663Z,4.40
2024-04-17T04:57:38.494Z,4.50
2024-04-17T05:00:08.459Z,4.50
2024-04-17T05:02:35.604Z,4.50
2024-04-17T05:05:02.896Z,4.60
2024-04-17T05:07:29.965Z,4.50
2024-04-17T05:09:56.968Z,4.60
2024-04-17T05:12:23.741Z,4.60
2024-04-17T05:14:50.566Z,4.70
2024-04-17T05:17:17.417Z,4.70
2024-04-17T05:19:44.276Z,4.70
2024-04-17T05:22:11.061Z,4.80
2024-04-17T05:24:37.867Z,4.80
2024-04-17T05:27:04.974Z,4.80
2024-04-17T05:29:31.778Z,4.80
2024-04-17T05:31:58.608Z,4.80
2024-04-17T05:34:25.516Z,4.90
2024-04-17T05:36:52.321Z,4.90
2024-04-17T05:39:19.126Z,4.90
2024-04-17T05:41:45.939Z,5.00
2024-04-17T05:44:12.720Z,5.00
2024-04-17T05:46:39.930Z,5.00
2024-04-17T05:49:07.600Z,5.00
2024-04-17T05:51:34.550Z,5.10
2024-04-17T05:54:01.377Z,5.10
2024-04-17T05:56:28.184Z,5.10
2024-04-17T05:58:55.275Z,5.10
2024-04-17T06:01:22.258Z,5.20
2024-04-17T06:03:49.085Z,5.20
2024-04-17T06:06:16.101Z,5.40
2024-04-17T06:08:42.890Z,5.50
2024-04-17T06:11:09.976Z,5.50
2024-04-17T06:13:36.885Z,5.50
2024-04-17T06:16:03.864Z,5.50
2024-04-17T06:18:30.736Z,5.50
2024-04-17T06:20:57.581Z,5.60
2024-04-17T06:23:24.409Z,5.60
2024-04-17T06:25:51.226Z,5.60
2024-04-17T06:28:18.068Z,5.70
2024-04-17T06:30:44.866Z,5.70
2024-04-17T06:33:11.728Z,5.60
2024-04-17T06:35:38.623Z,5.60
2024-04-17T06:38:05.496Z,5.70
2024-04-17T06:40:32.386Z,5.70
2024-04-17T06:42:59.314Z,5.70
2024-04-17T06:45:26.093Z,5.70
2024-04-17T06:47:55.173Z,5.70
2024-04-17T06:50:22.244Z,5.80
2024-04-17T06:52:49.111Z,5.80
2024-04-17T06:55:16.116Z,5.80
2024-04-17T06:57:42.919Z,5.90
2024-04-17T07:00:11.047Z,5.90
2024-04-17T07:02:43.252Z,5.90
2024-04-17T07:05:16.498Z,5.90
2024-04-17T07:07:43.337Z,6.00
2024-04-17T07:10:10.250Z,6.00
2024-04-17T07:12:37.475Z,6.00
2024-04-17T07:15:04.781Z,6.00
2024-04-17T07:17:31.642Z,6.00
2024-04-17T07:19:58.480Z,6.00
2024-04-17T07:22:25.370Z,6.00
2024-04-17T07:24:52.196Z,6.00
2024-04-17T07:27:18.979Z,6.10
2024-04-17T07:29:46.274Z,6.10
2024-04-17T07:32:13.203Z,6.10
2024-04-17T07:34:40.236Z,6.10
2024-04-17T07:37:07.153Z,6.10
2024-04-17T07:39:33.957Z,6.10
2024-04-17T07:42:00.767Z,6.10
2024-04-17T07:44:27.560Z,6.20
2024-04-17T07:46:54.426Z,6.20
2024-04-17T07:49:21.475Z,6.20
2024-04-17T07:51:48.516Z,6.30
2024-04-17T07:54:15.403Z,6.30
2024-04-17T07:56:42.200Z,6.30
2024-04-17T07:59:09.158Z,6.40
2024-04-17T08:01:35.986Z,6.40
2024-04-17T08:04:02.823Z,6.50
2024-04-17T08:06:29.659Z,6.50
2024-04-17T08:08:56.479Z,6.50
2024-04-17T08:11:26.961Z,6.50
2024-04-17T08:13:54.990Z,6.50
2024-04-17T08:16:21.813Z,6.50
2024-04-17T08:18:48.636Z,6.50
2024-04-17T08:21:15.536Z,6.50
2024-04-17T08:23:42.354Z,6.50
2024-04-17T08:26:09.409Z,6.70
2024-04-17T08:28:36.315Z,6.80
2024-04-17T08:31:03.327Z,7.00
2024-04-17T08:33:30.323Z,7.10
2024-04-17T08:35:57.235Z,7.30
2024-04-17T08:38:24.256Z,7.40
2024-04-17T08:40:52.569Z,7.50
2024-04-17T08:43:25.749Z,7.40
2024-04-17T08:45:54.791Z,7.40
2024-04-17T08:48:22.945Z,7.20
2024-04-17T08:50:51.773Z,7.10
2024-04-17T08:53:20.031Z,7.10
2024-04-17T08:55:47.524Z,7.10
2024-04-17T08:58:14.798Z,7.00
2024-04-17T09:00:42.501Z,7.00
2024-04-17T09:03:11.469Z,6.90
2024-04-17T09:05:38.386Z,6.80
2024-04-17T09:08:08.551Z,6.80
2024-04-17T09:10:37.805Z,6.90
2024-04-17T09:13:05.335Z,6.90
2024-04-17T09:15:32.130Z,6.90
2024-04-17T09:18:00.716Z,6.90
2024-04-17T09:20:28.460Z,7.00
2024-04-17T09:22:56.743Z,7.10
2024-04-17T09:25:25.557Z,7.20
2024-04-17T09:27:52.461Z,7.40
2024-04-17T09:30:19.871Z,7.80
2024-04-17T09:32:48.108Z,7.90
2024-04-17T09:35:15.957Z,8.10
2024-04-17T09:37:43.325Z,8.30
2024-04-17T09:40:11.268Z,8.50
2024-04-17T09:42:42.283Z,8.60
2024-04-17T09:45:14.522Z,8.80
2024-04-17T09:47:47.224Z,9.00
2024-04-17T09:50:19.169Z,9.10
2024-04-17T09:52:54.369Z,9.10
2024-04-17T09:55:23.447Z,9.20
2024-04-17T09:57:53.373Z,9.30
2024-04-17T10:00:22.766Z,9.30
2024-04-17T10:02:51.728Z,9.30
2024-04-17T10:05:18.889Z,9.60
2024-04-17T10:07:46.180Z,9.90
2024-04-17T10:10:16.465Z,10.00
2024-04-17T10:12:46.106Z,9.80
2024-04-17T10:15:13.002Z,9.50
2024-04-17T10:17:40.189Z,9.00
2024-04-17T10:20:25.389Z,8.50
2024-04-17T10:22:52.207Z,8.20
2024-04-17T10:25:27.808Z,8.10
2024-04-17T10:28:14.489Z,8.00
2024-04-17T10:30:43.566Z,8.10
2024-04-17T10:33:30.576Z,8.20
2024-04-17T10:35:58.562Z,8.30
2024-04-17T10:38:34.468Z,8.40
2024-04-17T10:41:05.194Z,8.50
2024-04-17T10:43:35.592Z,8.70
2024-04-17T10:46:10.254Z,9.10
2024-04-17T10:48:51.950Z,9.50
2024-04-17T10:51:19.815Z,9.60
2024-04-17T10:53:48.738Z,9.50
2024-04-17T10:56:18.615Z,9.30
2024-04-17T10:58:45.937Z,9.10
2024-04-17T11:01:17.897Z,8.80
2024-04-17T11:03:45.590Z,8.50
2024-04-17T11:06:12.929Z,8.20
2024-04-17T11:08:51.133Z,8.00
2024-04-17T11:11:26.217Z,7.90
2024-04-17T11:13:53.458Z,7.60
2024-04-17T11:16:20.455Z,7.50
2024-04-17T11:18:47.616Z,7.40
2024-04-17T11:21:14.528Z,7.50
2024-04-17T11:23:42.742Z,7.70
2024-04-17T11:26:10.558Z,8.10
2024-04-17T11:28:41.727Z,8.40
2024-04-17T11:31:10.666Z,8.80
2024-04-17T11:33:38.655Z,9.10
2024-04-17T11:36:14.294Z,9.40
2024-04-17T11:38:42.798Z,9.70
2024-04-17T11:41:12.001Z,10.10
2024-04-17T11:43:39.878Z,10.40
2024-04-17T11:46:08.522Z,10.50
2024-04-17T11:48:35.456Z,10.60
2024-04-17T11:51:02.444Z,10.70
2024-04-17T11:53:29.578Z,10.90
2024-04-17T11:55:56.526Z,11.10
2024-04-17T11:58:23.467Z,11.30
2024-04-17T12:00:50.686Z,11.20
2024-04-17T12:03:17.779Z,11.30
2024-04-17T12:05:44.654Z,11.30
2024-04-17T12:08:11.470Z,11.10
2024-04-17T12:10:38.404Z,11.00
2024-04-17T12:13:05.470Z,11.00
2024-04-17T12:15:32.264Z,11.00
2024-04-17T12:17:59.171Z,10.90
2024-04-17T12:20:25.988Z,11.00
2024-04-17T12:22:53.289Z,11.00
2024-04-17T12:25:38.542Z,10.70
2024-04-17T12:28:05.558Z,10.10
2024-04-17T12:30:32.360Z,9.60
2024-04-17T12:32:59.254Z,9.30
2024-04-17T12:35:26.530Z,9.20
2024-04-17T12:37:53.966Z,9.00
2024-04-17T12:40:20.884Z,8.90
2024-04-17T12:42:47.704Z,8.90
2024-04-17T12:45:14.956Z,9.00
2024-04-17T12:47:41.879Z,9.10
2024-04-17T12:50:08.779Z,9.20
2024-04-17T12:52:36.635Z,9.20
2024-04-17T12:55:03.563Z,9.40
2024-04-17T12:57:30.552Z,9.70
2024-04-17T12:59:57.424Z,9.70
2024-04-17T13:02:28.318Z,9.80
2024-04-17T13:04:58.012Z,9.70
2024-04-17T13:07:24.867Z,9.70
2024-04-17T13:09:51.742Z,9.50
2024-04-17T13:12:18.540Z,9.30
2024-04-17T13:14:49.413Z,9.20
2024-04-17T13:17:16.329Z,9.20
2024-04-17T13:19:45.390Z,9.20
2024-04-17T13:22:14.265Z,9.30
2024-04-17T13:24:41.279Z,9.40
2024-04-17T13:27:09.438Z,9.50
2024-04-17T13:29:36.245Z,9.60
2024-04-17T13:32:03.277Z,10.00
2024-04-17T13:34:30.148Z,10.50
2024-04-17T13:36:56.950Z,11.00
2024-04-17T13:39:24.131Z,11.50
2024-04-17T13:41:54.034Z,11.80
2024-04-17T13:44:21.874Z,12.30
2024-04-17T13:46:49.279Z,12.50
2024-04-17T13:49:16.330Z,12.50
2024-04-17T13:51:43.127Z,12.50
2024-04-17T13:54:10.110Z,12.60
2024-04-17T13:56:36.907Z,12.70
2024-04-17T13:59:03.727Z,13.10
2024-04-17T14:04:00.520Z,14.00
2024-04-17T14:06:27.618Z,14.50
2024-04-17T14:08:54.457Z,14.80
2024-04-17T14:11:21.279Z,15.40
2024-04-17T14:13:48.102Z,16.10
2024-04-17T14:16:14.924Z,16.70
2024-04-17T14:18:41.810Z,17.20
2024-04-17T14:21:19.225Z,18.60
2024-04-17T14:23:48.190Z,20.20
2024-04-17T14:26:21.145Z,22.00
2024-04-17T14:28:47.946Z,23.00
2024-04-17T14:31:15.174Z,23.60
2024-04-17T14:33:42.104Z,23.90
2024-04-17T14:36:09.330Z,23.50
2024-04-17T14:38:39.970Z,23.10
2024-04-17T14:41:07.020Z,22.40
2024-04-17T14:43:36.235Z,22.30
2024-04-17T14:46:04.570Z,22.90
2024-04-17T14:48:36.365Z,24.00
2024-04-17T14:51:12.285Z,24.80
2024-04-17T14:53:40.646Z,24.10
2024-04-17T14:56:08.999Z,23.40
2024-04-17T14:58:42.283Z,23.70
2024-04-17T15:01:12.908Z,23.90
2024-04-17T15:03:39.834Z,22.80
2024-04-17T15:06:14.355Z,21.50
2024-04-17T15:08:42.931Z,19.90
2024-04-17T15:11:12.605Z,18.10
2024-04-17T15:13:41.760Z,16.70
2024-04-17T15:16:10.572Z,15.60
2024-04-17T15:18:37.658Z,14.70
2024-04-17T15:21:05.525Z,13.90
2024-04-17T15:23:33.049Z,13.30
2024-04-17T15:26:07.266Z,12.80
2024-04-17T15:28:35.409Z,12.50
2024-04-17T15:31:07.497Z,12.10
2024-04-17T15:33:36.479Z,11.70
2024-04-17T15:36:04.507Z,11.40
2024-04-17T15:38:32.663Z,11.10
2024-04-17T15:41:07.428Z,10.80
2024-04-17T15:43:38.260Z,10.60
2024-04-17T15:46:09.394Z,10.30
2024-04-17T15:48:36.543Z,10.30
2024-04-17T15:51:07.996Z,10.40
2024-04-17T15:53:36.447Z,10.60
2024-04-17T15:56:04.064Z,10.80
2024-04-17T15:58:30.957Z,10.90
2024-04-17T16:01:05.410Z,10.80
2024-04-17T16:03:34.085Z,10.80
2024-04-17T16:06:03.125Z,10.60
2024-04-17T16:08:30.053Z,10.40
2024-04-17T16:10:58.123Z,10.20
2024-04-17T16:13:25.447Z,9.90
2024-04-17T16:15:53.402Z,9.60
2024-04-17T16:18:21.342Z,9.30
2024-04-17T16:20:49.124Z,9.20
2024-04-17T16:23:16.956Z,9.10
2024-04-17T16:25:44.740Z,8.80
2024-04-17T16:28:11.873Z,8.60
2024-04-17T16:30:39.668Z,8.50
2024-04-17T16:33:07.451Z,8.40
2024-04-17T16:35:34.438Z,8.30
2024-04-17T16:38:01.293Z,8.30
2024-04-17T16:40:28.959Z,8.20
2024-04-17T16:42:57.634Z,8.30
2024-04-17T16:45:24.525Z,8.30
2024-04-17T16:47:51.442Z,8.20
2024-04-17T16:50:18.564Z,8.20
2024-04-17T16:52:49.844Z,8.30
2024-04-17T16:55:16.640Z,8.30
2024-04-17T16:57:43.489Z,8.40
2024-04-17T17:00:10.628Z,8.50
2024-04-17T17:02:38.746Z,8.70
2024-04-17T17:05:05.977Z,8.70
2024-04-17T17:07:32.852Z,8.60
2024-04-17T17:09:59.684Z,8.60
2024-04-17T17:12:26.519Z,8.50
2024-04-17T17:14:53.446Z,8.30
2024-04-17T17:17:20.270Z,8.20
2024-04-17T17:19:50.220Z,8.20
2024-04-17T17:22:22.125Z,8.20
2024-04-17T17:24:48.996Z,8.10
2024-04-17T17:27:15.882Z,8.10
2024-04-17T17:29:43.049Z,8.00
2024-04-17T17:32:09.857Z,8.00
2024-04-17T17:34:36.710Z,7.90
2024-04-17T17:37:03.546Z,7.90
2024-04-17T17:39:30.488Z,7.90
2024-04-17T17:41:57.332Z,7.90
2024-04-17T17:44:24.154Z,7.90
2024-04-17T17:46:50.945Z,7.90
2024-04-17T17:49:17.854Z,7.80
2024-04-17T17:51:44.788Z,7.80
2024-04-17T17:54:11.744Z,7.70
2024-04-17T17:56:41.273Z,7.60
2024-04-17T17:59:08.046Z,7.60
2024-04-17T18:01:34.879Z,7.50
2024-04-17T18:04:01.890Z,7.40
2024-04-17T18:06:30.717Z,7.30
2024-04-17T18:09:00.427Z,7.20
2024-04-17T18:11:27.989Z,7.20
2024-04-17T18:13:55.036Z,7.10
2024-04-17T18:16:29.464Z,7.00
2024-04-17T18:19:04.798Z,6.80
2024-04-17T18:21:32.238Z,6.70
2024-04-17T18:23:59.279Z,6.70
2024-04-17T18:26:27.706Z,6.60
2024-04-17T18:28:54.830Z,6.60
2024-04-17T18:31:22.450Z,6.60
2024-04-17T18:33:51.962Z,6.60
2024-04-17T18:36:23.701Z,6.50
2024-04-17T18:38:52.123Z,6.50
2024-04-17T18:41:22.888Z,6.50
2024-04-17T18:43:53.108Z,6.40
2024-04-17T18:46:20.592Z,6.40
2024-04-17T18:48:48.177Z,6.40
2024-04-17T18:51:15.654Z,6.40
2024-04-17T18:53:42.572Z,6.40
2024-04-17T18:56:12.874Z,6.30
2024-04-17T18:58:40.479Z,6.30
2024-04-17T19:01:08.972Z,6.30
2024-04-17T19:03:36.175Z,6.20
2024-04-17T19:06:03.428Z,6.20
2024-04-17T19:08:30.779Z,6.20
2024-04-17T19:10:57.626Z,6.20
2024-04-17T19:13:27.827Z,6.20
2024-04-17T19:15:54.638Z,6.20
2024-04-17T19:18:23.958Z,6.10
2024-04-17T19:20:52.405Z,6.10
2024-04-17T19:23:20.321Z,6.00
2024-04-17T19:25:51.534Z,6.00
2024-04-17T19:28:22.682Z,6.00
2024-04-17T19:31:04.431Z,6.00
2024-04-17T19:33:51.812Z,5.90
2024-04-17T19:36:23.707Z,5.90
2024-04-17T19:38:52.675Z,5.90
2024-04-17T19:41:20.477Z,5.90
2024-04-17T19:43:56.054Z,5.90
2024-04-17T19:46:23.091Z,5.90
2024-04-17T19:48:50.016Z,5.80
2024-04-17T19:51:18.194Z,5.80
2024-04-17T19:53:46.482Z,5.70
2024-04-17T19:56:20.688Z,5.70
2024-04-17T19:58:50.114Z,5.60
2024-04-17T20:01:18.499Z,5.60
2024-04-17T20:03:45.500Z,5.60
2024-04-17T20:06:13.605Z,5.50
2024-04-17T20:08:41.499Z,5.50
2024-04-17T20:11:10.393Z,5.50
2024-04-17T20:13:37.975Z,5.40
2024-04-17T20:16:06.594Z,5.40
2024-04-17T20:18:35.223Z,5.40
2024-04-17T20:21:09.992Z,5.40
2024-04-17T20:23:39.805Z,5.40
2024-04-17T20:26:10.437Z,5.30
2024-04-17T20:28:52.664Z,5.30
2024-04-17T20:31:25.100Z,5.30
2024-04-17T20:33:53.607Z,5.30
2024-04-17T20:36:20.812Z,5.30
2024-04-17T20:38:49.816Z,5.30
2024-04-17T20:41:16.678Z,5.30
2024-04-17T20:43:44.841Z,5.30
2024-04-17T20:46:14.106Z,5.30
2024-04-17T20:48:42.557Z,5.30
2024-04-17T20:51:09.896Z,5.30
2024-04-17T20:53:38.693Z,5.30
2024-04-17T20:56:07.237Z,5.30
2024-04-17T20:58:34.287Z,5.20
2024-04-17T21:01:09.657Z,5.10
2024-04-17T21:03:37.513Z,5.10
2024-04-17T21:06:13.104Z,5.10
2024-04-17T21:08:41.682Z,5.00
2024-04-17T21:11:10.772Z,5.00
2024-04-17T21:13:39.153Z,4.90
2024-04-17T21:16:07.920Z,4.90
2024-04-17T21:18:36.759Z,4.80
2024-04-17T21:21:04.307Z,4.70
2024-04-17T21:23:32.598Z,4.70
2024-04-17T21:25:59.508Z,4.70
2024-04-17T21:28:27.972Z,4.70
2024-04-17T21:30:57.751Z,4.70
2024-04-17T21:33:28.844Z,4.60
2024-04-17T21:35:56.014Z,4.60
2024-04-17T21:38:22.961Z,4.60
2024-04-17T21:40:59.775Z,4.60
2024-04-17T21:43:28.399Z,4.60
2024-04-17T21:45:57.236Z,4.60
2024-04-17T21:48:24.485Z,4.60
2024-04-17T21:50:53.764Z,4.60
2024-04-17T21:53:20.776Z,4.60
2024-04-17T21:55:47.704Z,4.60
2024-04-17T21:58:14.521Z,4.60
2024-04-17T22:00:42.146Z,4.60
2024-04-17T22:03:09.479Z,4.60
2024-04-17T22:05:37.294Z,4.50
2024-04-17T22:08:04.544Z,4.50
2024-04-17T22:10:31.766Z,4.50
2024-04-17T22:12:58.761Z,4.50
2024-04-17T22:15:25.956Z,4.40
2024-04-17T22:17:52.985Z,4.30
2024-04-17T22:20:19.822Z,4.30
2024-04-17T22:22:46.622Z,4.20
2024-04-17T22:25:13.441Z,4.10
2024-04-17T22:27:40.352Z,4.10
2024-04-17T22:30:07.735Z,4.00
2024-04-17T22:32:34.593Z,4.00
2024-04-17T22:35:01.479Z,4.00
2024-04-17T22:37:28.287Z,3.90
2024-04-17T22:39:55.094Z,3.90
2024-04-17T22:42:22.025Z,3.90
2024-04-17T22:44:48.840Z,3.90
2024-04-17T22:47:15.757Z,3.80
2024-04-17T22:49:55.599Z,3.80
2024-04-17T22:52:23.742Z,3.70
2024-04-17T22:54:50.638Z,3.70
2024-04-17T22:57:17.485Z,3.70
2024-04-17T22:59:44.618Z,3.60
2024-04-17T23:02:11.434Z,3.70
2024-04-17T23:04:38.323Z,3.70
2024-04-17T23:07:05.396Z,3.70
2024-04-17T23:09:32.282Z,3.70
2024-04-17T23:11:59.173Z,3.70
2024-04-17T23:14:25.995Z,3.60
2024-04-17T23:16:52.887Z,3.60
2024-04-17T23:19:25.244Z,3.60
2024-04-17T23:21:52.820Z,3.60
2024-04-17T23:24:19.737Z,3.60
2024-04-17T23:26:46.581Z,3.60
2024-04-17T23:29:13.494Z,3.60
2024-04-17T23:31:40.318Z,3.60
2024-04-17T23:34:07.261Z,3.60
2024-04-17T23:36:34.141Z,3.50
2024-04-17T23:39:00.972Z,3.50
2024-04-17T23:41:28.122Z,3.60
2024-04-17T23:43:54.962Z,3.60
2024-04-17T23:46:21.776Z,3.60
2024-04-17T23:48:48.683Z,3.60
2024-04-17T23:51:15.575Z,3.60
2024-04-17T23:53:43.228Z,3.70
2024-04-17T23:56:10.064Z,3.70
2024-04-17T23:58:36.865Z,3.70
